sensor_id;sensor_type;location;lat;lon;timestamp;pressure;altitude;pressure_sealevel;temperature;humidity
77954;BME280;67151;52.544;6.034;2023-08-12T00:00:11;101730;;;25.4;53
77954;BME280;67151;52.544;6.034;2023-08-12T00:00:25;101730;;;25.4;53
77954;BME280;67151;52.544;6.034;2023-08-12T00:00:40;101720;;;25.4;53
77954;BME280;67151;52.544;6.034;2023-08-12T00:00:55;101730;;;25.4;52.9
77954;BME280;67151;52.544;6.034;2023-08-12T00:01:10;101730;;;25.4;52.9
77954;BME280;67151;52.544;6.034;2023-08-12T00:01:25;101730;;;25.4;52.9
77954;BME280;67151;52.544;6.034;2023-08-12T00:01:40;101730;;;25.4;52.9
77954;BME280;67151;52.544;6.034;2023-08-12T00:01:56;101730;;;25.4;52.9
77954;BME280;67151;52.544;6.034;2023-08-12T00:02:10;101730;;;25.4;52.9
77954;BME280;67151;52.544;6.034;2023-08-12T00:02:25;101730;;;25.4;53
77954;BME280;67151;52.544;6.034;2023-08-12T00:02:41;101730;;;25.4;52.9
77954;BME280;67151;52.544;6.034;2023-08-12T00:02:55;101730;;;25.4;52.9
77954;BME280;67151;52.544;6.034;2023-08-12T00:03:10;101730;;;25.4;52.9
77954;BME280;67151;52.544;6.034;2023-08-12T00:03:25;101730;;;25.4;52.9
77954;BME280;67151;52.544;6.034;2023-08-12T00:03:40;101730;;;25.4;52.9
77954;BME280;67151;52.544;6.034;2023-08-12T00:03:55;101730;;;25.4;53
77954;BME280;67151;52.544;6.034;2023-08-12T00:04:10;101730;;;25.4;52.9
77954;BME280;67151;52.544;6.034;2023-08-12T00:04:25;101730;;;25.4;53
77954;BME280;67151;52.544;6.034;2023-08-12T00:04:40;101720;;;25.4;53
77954;BME280;67151;52.544;6.034;2023-08-12T00:04:55;101730;;;25.4;52.9
77954;BME280;67151;52.544;6.034;2023-08-12T00:05:11;101730;;;25.4;53
77954;BME280;67151;52.544;6.034;2023-08-12T00:05:25;101730;;;25.4;53
77954;BME280;67151;52.544;6.034;2023-08-12T00:05:40;101720;;;25.4;52.9
77954;BME280;67151;52.544;6.034;2023-08-12T00:05:55;101730;;;25.4;53
77954;BME280;67151;52.544;6.034;2023-08-12T00:06:10;101720;;;25.4;53
77954;BME280;67151;52.544;6.034;2023-08-12T00:06:25;101730;;;25.4;53
77954;BME280;67151;52.544;6.034;2023-08-12T00:06:40;101720;;;25.4;53
77954;BME280;67151;52.544;6.034;2023-08-12T00:06:55;101720;;;25.4;53
77954;BME280;67151;52.544;6.034;2023-08-12T00:07:10;101720;;;25.4;53
77954;BME280;67151;52.544;6.034;2023-08-12T00:07:25;101720;;;25.4;53
77954;BME280;67151;52.544;6.034;2023-08-12T00:07:41;101720;;;25.3;53
77954;BME280;67151;52.544;6.034;2023-08-12T00:07:55;101710;;;25.4;53
77954;BME280;67151;52.544;6.034;2023-08-12T00:08:10;101710;;;25.4;53
77954;BME280;67151;52.544;6.034;2023-08-12T00:08:25;101710;;;25.3;53
77954;BME280;67151;52.544;6.034;2023-08-12T00:08:40;101710;;;25.3;53
77954;BME280;67151;52.544;6.034;2023-08-12T00:08:55;101720;;;25.3;53
77954;BME280;67151;52.544;6.034;2023-08-12T00:09:10;101720;;;25.4;53
77954;BME280;67151;52.544;6.034;2023-08-12T00:09:25;101720;;;25.4;52.9
77954;BME280;67151;52.544;6.034;2023-08-12T00:09:40;101720;;;25.4;52.9
77954;BME280;67151;52.544;6.034;2023-08-12T00:09:55;101720;;;25.4;52.9
77954;BME280;67151;52.544;6.034;2023-08-12T00:10:11;101710;;;25.4;52.9
77954;BME280;67151;52.544;6.034;2023-08-12T00:10:25;101710;;;25.4;53
77954;BME280;67151;52.544;6.034;2023-08-12T00:10:40;101710;;;25.4;53
77954;BME280;67151;52.544;6.034;2023-08-12T00:10:55;101710;;;25.4;52.9
77954;BME280;67151;52.544;6.034;2023-08-12T00:11:10;101710;;;25.4;52.9
77954;BME280;67151;52.544;6.034;2023-08-12T00:11:25;101720;;;25.4;52.9
77954;BME280;67151;52.544;6.034;2023-08-12T00:11:40;101710;;;25.4;52.9
77954;BME280;67151;52.544;6.034;2023-08-12T00:11:55;101710;;;25.4;53
77954;BME280;67151;52.544;6.034;2023-08-12T00:12:10;101720;;;25.3;53
77954;BME280;67151;52.544;6.034;2023-08-12T00:12:25;101720;;;25.4;53
77954;BME280;67151;52.544;6.034;2023-08-12T00:12:40;101720;;;25.3;52.9
77954;BME280;67151;52.544;6.034;2023-08-12T00:12:55;101710;;;25.4;52.9
77954;BME280;67151;52.544;6.034;2023-08-12T00:13:10;101710;;;25.4;53
77954;BME280;67151;52.544;6.034;2023-08-12T00:13:25;101710;;;25.3;53
77954;BME280;67151;52.544;6.034;2023-08-12T00:13:40;101710;;;25.3;53
77954;BME280;67151;52.544;6.034;2023-08-12T00:13:55;101710;;;25.3;53
77954;BME280;67151;52.544;6.034;2023-08-12T00:14:10;101710;;;25.4;53
77954;BME280;67151;52.544;6.034;2023-08-12T00:14:25;101720;;;25.3;53
77954;BME280;67151;52.544;6.034;2023-08-12T00:14:40;101710;;;25.3;53
77954;BME280;67151;52.544;6.034;2023-08-12T00:14:55;101720;;;25.3;53.1
77954;BME280;67151;52.544;6.034;2023-08-12T00:15:10;101720;;;25.3;53
77954;BME280;67151;52.544;6.034;2023-08-12T00:15:25;101720;;;25.3;53
77954;BME280;67151;52.544;6.034;2023-08-12T00:15:40;101710;;;25.3;53
77954;BME280;67151;52.544;6.034;2023-08-12T00:15:55;101720;;;25.3;53
77954;BME280;67151;52.544;6.034;2023-08-12T00:16:10;101720;;;25.3;53.1
77954;BME280;67151;52.544;6.034;2023-08-12T00:16:25;101720;;;25.3;53
77954;BME280;67151;52.544;6.034;2023-08-12T00:16:40;101710;;;25.3;53
77954;BME280;67151;52.544;6.034;2023-08-12T00:16:55;101710;;;25.3;53
77954;BME280;67151;52.544;6.034;2023-08-12T00:17:10;101710;;;25.3;53.1
77954;BME280;67151;52.544;6.034;2023-08-12T00:17:26;101710;;;25.3;53
77954;BME280;67151;52.544;6.034;2023-08-12T00:17:40;101710;;;25.3;53
77954;BME280;67151;52.544;6.034;2023-08-12T00:17:55;101710;;;25.3;53
77954;BME280;67151;52.544;6.034;2023-08-12T00:18:10;101700;;;25.3;53
77954;BME280;67151;52.544;6.034;2023-08-12T00:18:25;101700;;;25.3;53
77954;BME280;67151;52.544;6.034;2023-08-12T00:18:40;101700;;;25.3;53
77954;BME280;67151;52.544;6.034;2023-08-12T00:18:55;101710;;;25.3;53
77954;BME280;67151;52.544;6.034;2023-08-12T00:19:10;101710;;;25.3;53
77954;BME280;67151;52.544;6.034;2023-08-12T00:19:25;101700;;;25.3;53
77954;BME280;67151;52.544;6.034;2023-08-12T00:19:40;101700;;;25.3;53
77954;BME280;67151;52.544;6.034;2023-08-12T00:19:55;101710;;;25.3;53
77954;BME280;67151;52.544;6.034;2023-08-12T00:20:11;101710;;;25.3;53
77954;BME280;67151;52.544;6.034;2023-08-12T00:20:25;101700;;;25.3;53
77954;BME280;67151;52.544;6.034;2023-08-12T00:20:40;101700;;;25.3;53
77954;BME280;67151;52.544;6.034;2023-08-12T00:20:55;101710;;;25.3;53
77954;BME280;67151;52.544;6.034;2023-08-12T00:21:10;101700;;;25.3;53
77954;BME280;67151;52.544;6.034;2023-08-12T00:21:25;101690;;;25.3;53
77954;BME280;67151;52.544;6.034;2023-08-12T00:21:40;101700;;;25.3;53
77954;BME280;67151;52.544;6.034;2023-08-12T00:21:55;101700;;;25.3;53
77954;BME280;67151;52.544;6.034;2023-08-12T00:22:10;101700;;;25.3;53
77954;BME280;67151;52.544;6.034;2023-08-12T00:22:25;101700;;;25.3;53
77954;BME280;67151;52.544;6.034;2023-08-12T00:22:41;101710;;;25.3;53
77954;BME280;67151;52.544;6.034;2023-08-12T00:22:55;101700;;;25.3;53
77954;BME280;67151;52.544;6.034;2023-08-12T00:23:11;101710;;;25.3;53.1
77954;BME280;67151;52.544;6.034;2023-08-12T00:23:25;101710;;;25.3;53
77954;BME280;67151;52.544;6.034;2023-08-12T00:23:40;101710;;;25.3;53
77954;BME280;67151;52.544;6.034;2023-08-12T00:23:55;101710;;;25.3;53
77954;BME280;67151;52.544;6.034;2023-08-12T00:24:10;101710;;;25.3;53
77954;BME280;67151;52.544;6.034;2023-08-12T00:24:25;101710;;;25.3;53
77954;BME280;67151;52.544;6.034;2023-08-12T00:24:40;101710;;;25.3;53
77954;BME280;67151;52.544;6.034;2023-08-12T00:24:56;101710;;;25.3;53
77954;BME280;67151;52.544;6.034;2023-08-12T00:25:11;101710;;;25.3;53
77954;BME280;67151;52.544;6.034;2023-08-12T00:25:25;101710;;;25.3;53
77954;BME280;67151;52.544;6.034;2023-08-12T00:25:41;101710;;;25.3;53
77954;BME280;67151;52.544;6.034;2023-08-12T00:25:57;101710;;;25.3;53
77954;BME280;67151;52.544;6.034;2023-08-12T00:26:10;101710;;;25.3;53
77954;BME280;67151;52.544;6.034;2023-08-12T00:26:25;101710;;;25.3;53
77954;BME280;67151;52.544;6.034;2023-08-12T00:26:40;101710;;;25.3;53
77954;BME280;67151;52.544;6.034;2023-08-12T00:26:56;101710;;;25.3;53
77954;BME280;67151;52.544;6.034;2023-08-12T00:27:11;101710;;;25.3;53
77954;BME280;67151;52.544;6.034;2023-08-12T00:27:25;101710;;;25.3;53
77954;BME280;67151;52.544;6.034;2023-08-12T00:27:40;101710;;;25.3;53
77954;BME280;67151;52.544;6.034;2023-08-12T00:27:55;101710;;;25.3;53
77954;BME280;67151;52.544;6.034;2023-08-12T00:28:10;101720;;;25.3;53
77954;BME280;67151;52.544;6.034;2023-08-12T00:28:25;101710;;;25.3;53
77954;BME280;67151;52.544;6.034;2023-08-12T00:28:40;101710;;;25.3;53
77954;BME280;67151;52.544;6.034;2023-08-12T00:28:55;101710;;;25.3;53
77954;BME280;67151;52.544;6.034;2023-08-12T00:29:11;101710;;;25.3;53
77954;BME280;67151;52.544;6.034;2023-08-12T00:29:25;101710;;;25.3;53
77954;BME280;67151;52.544;6.034;2023-08-12T00:29:40;101710;;;25.3;52.9
77954;BME280;67151;52.544;6.034;2023-08-12T00:29:55;101720;;;25.3;53
77954;BME280;67151;52.544;6.034;2023-08-12T00:30:10;101720;;;25.3;53
77954;BME280;67151;52.544;6.034;2023-08-12T00:30:25;101710;;;25.3;53
77954;BME280;67151;52.544;6.034;2023-08-12T00:30:40;101710;;;25.3;53
77954;BME280;67151;52.544;6.034;2023-08-12T00:30:55;101710;;;25.3;53
77954;BME280;67151;52.544;6.034;2023-08-12T00:31:10;101710;;;25.3;53
77954;BME280;67151;52.544;6.034;2023-08-12T00:31:25;101710;;;25.3;53
77954;BME280;67151;52.544;6.034;2023-08-12T00:31:40;101710;;;25.3;53
77954;BME280;67151;52.544;6.034;2023-08-12T00:31:55;101710;;;25.3;52.9
77954;BME280;67151;52.544;6.034;2023-08-12T00:32:10;101710;;;25.3;52.9
77954;BME280;67151;52.544;6.034;2023-08-12T00:32:25;101710;;;25.3;52.9
77954;BME280;67151;52.544;6.034;2023-08-12T00:32:40;101710;;;25.3;53
77954;BME280;67151;52.544;6.034;2023-08-12T00:32:55;101710;;;25.3;52.9
77954;BME280;67151;52.544;6.034;2023-08-12T00:33:10;101700;;;25.3;53
77954;BME280;67151;52.544;6.034;2023-08-12T00:33:25;101710;;;25.3;52.9
77954;BME280;67151;52.544;6.034;2023-08-12T00:33:40;101700;;;25.3;53
77954;BME280;67151;52.544;6.034;2023-08-12T00:33:55;101710;;;25.3;53
77954;BME280;67151;52.544;6.034;2023-08-12T00:34:10;101700;;;25.3;53
77954;BME280;67151;52.544;6.034;2023-08-12T00:34:25;101710;;;25.3;53
77954;BME280;67151;52.544;6.034;2023-08-12T00:34:40;101710;;;25.3;53
77954;BME280;67151;52.544;6.034;2023-08-12T00:34:56;101710;;;25.3;53
77954;BME280;67151;52.544;6.034;2023-08-12T00:35:10;101710;;;25.3;53
77954;BME280;67151;52.544;6.034;2023-08-12T00:35:25;101710;;;25.3;53
77954;BME280;67151;52.544;6.034;2023-08-12T00:35:40;101710;;;25.3;53
77954;BME280;67151;52.544;6.034;2023-08-12T00:35:55;101710;;;25.3;53
77954;BME280;67151;52.544;6.034;2023-08-12T00:36:10;101710;;;25.3;53
77954;BME280;67151;52.544;6.034;2023-08-12T00:36:25;101700;;;25.3;53
77954;BME280;67151;52.544;6.034;2023-08-12T00:36:40;101700;;;25.3;53
77954;BME280;67151;52.544;6.034;2023-08-12T00:36:55;101700;;;25.3;53
77954;BME280;67151;52.544;6.034;2023-08-12T00:37:10;101700;;;25.3;53
77954;BME280;67151;52.544;6.034;2023-08-12T00:37:25;101710;;;25.3;53
77954;BME280;67151;52.544;6.034;2023-08-12T00:37:40;101700;;;25.3;53
77954;BME280;67151;52.544;6.034;2023-08-12T00:37:55;101710;;;25.3;53
77954;BME280;67151;52.544;6.034;2023-08-12T00:38:10;101710;;;25.3;53
77954;BME280;67151;52.544;6.034;2023-08-12T00:38:25;101710;;;25.3;53
77954;BME280;67151;52.544;6.034;2023-08-12T00:38:40;101700;;;25.3;53
77954;BME280;67151;52.544;6.034;2023-08-12T00:38:55;101710;;;25.3;53
77954;BME280;67151;52.544;6.034;2023-08-12T00:39:10;101710;;;25.3;53
77954;BME280;67151;52.544;6.034;2023-08-12T00:39:25;101710;;;25.3;52.9
77954;BME280;67151;52.544;6.034;2023-08-12T00:39:40;101710;;;25.3;53
77954;BME280;67151;52.544;6.034;2023-08-12T00:39:55;101710;;;25.3;53
77954;BME280;67151;52.544;6.034;2023-08-12T00:40:10;101710;;;25.3;53
77954;BME280;67151;52.544;6.034;2023-08-12T00:40:25;101710;;;25.3;53
77954;BME280;67151;52.544;6.034;2023-08-12T00:40:40;101720;;;25.3;53
77954;BME280;67151;52.544;6.034;2023-08-12T00:40:55;101710;;;25.3;53
77954;BME280;67151;52.544;6.034;2023-08-12T00:41:10;101710;;;25.3;53
77954;BME280;67151;52.544;6.034;2023-08-12T00:41:25;101710;;;25.3;53
77954;BME280;67151;52.544;6.034;2023-08-12T00:41:40;101710;;;25.3;53
77954;BME280;67151;52.544;6.034;2023-08-12T00:41:55;101710;;;25.3;53
77954;BME280;67151;52.544;6.034;2023-08-12T00:42:10;101710;;;25.3;53
77954;BME280;67151;52.544;6.034;2023-08-12T00:42:25;101710;;;25.3;53
77954;BME280;67151;52.544;6.034;2023-08-12T00:42:40;101710;;;25.3;53
77954;BME280;67151;52.544;6.034;2023-08-12T00:42:55;101720;;;25.3;53
77954;BME280;67151;52.544;6.034;2023-08-12T00:43:10;101710;;;25.3;53
77954;BME280;67151;52.544;6.034;2023-08-12T00:43:25;101710;;;25.3;53
77954;BME280;67151;52.544;6.034;2023-08-12T00:43:40;101710;;;25.3;53
77954;BME280;67151;52.544;6.034;2023-08-12T00:43:55;101710;;;25.3;53
77954;BME280;67151;52.544;6.034;2023-08-12T00:44:11;101710;;;25.3;53
77954;BME280;67151;52.544;6.034;2023-08-12T00:44:25;101700;;;25.3;53
77954;BME280;67151;52.544;6.034;2023-08-12T00:44:40;101700;;;25.3;53
77954;BME280;67151;52.544;6.034;2023-08-12T00:44:55;101700;;;25.3;53
77954;BME280;67151;52.544;6.034;2023-08-12T00:45:11;101700;;;25.3;53
77954;BME280;67151;52.544;6.034;2023-08-12T00:45:26;101700;;;25.3;53
77954;BME280;67151;52.544;6.034;2023-08-12T00:45:40;101700;;;25.2;53
77954;BME280;67151;52.544;6.034;2023-08-12T00:45:55;101710;;;25.3;53.1
77954;BME280;67151;52.544;6.034;2023-08-12T00:46:10;101700;;;25.3;53.1
77954;BME280;67151;52.544;6.034;2023-08-12T00:46:25;101700;;;25.3;53
77954;BME280;67151;52.544;6.034;2023-08-12T00:46:41;101700;;;25.3;53
77954;BME280;67151;52.544;6.034;2023-08-12T00:46:55;101700;;;25.3;53
77954;BME280;67151;52.544;6.034;2023-08-12T00:47:10;101700;;;25.3;53
77954;BME280;67151;52.544;6.034;2023-08-12T00:47:26;101700;;;25.2;53
77954;BME280;67151;52.544;6.034;2023-08-12T00:47:41;101700;;;25.3;53
77954;BME280;67151;52.544;6.034;2023-08-12T00:47:55;101700;;;25.3;53
77954;BME280;67151;52.544;6.034;2023-08-12T00:48:10;101700;;;25.3;53
77954;BME280;67151;52.544;6.034;2023-08-12T00:48:25;101700;;;25.2;53
77954;BME280;67151;52.544;6.034;2023-08-12T00:48:41;101700;;;25.3;53
77954;BME280;67151;52.544;6.034;2023-08-12T00:48:55;101700;;;25.3;53
77954;BME280;67151;52.544;6.034;2023-08-12T00:49:10;101700;;;25.3;53
77954;BME280;67151;52.544;6.034;2023-08-12T00:49:25;101700;;;25.3;53
77954;BME280;67151;52.544;6.034;2023-08-12T00:49:40;101700;;;25.3;53
77954;BME280;67151;52.544;6.034;2023-08-12T00:49:55;101700;;;25.3;53
77954;BME280;67151;52.544;6.034;2023-08-12T00:50:10;101700;;;25.3;53
77954;BME280;67151;52.544;6.034;2023-08-12T00:50:25;101700;;;25.3;53
77954;BME280;67151;52.544;6.034;2023-08-12T00:50:41;101700;;;25.3;53
77954;BME280;67151;52.544;6.034;2023-08-12T00:50:55;101700;;;25.3;53
77954;BME280;67151;52.544;6.034;2023-08-12T00:51:11;101700;;;25.3;53
77954;BME280;67151;52.544;6.034;2023-08-12T00:51:25;101700;;;25.3;53
77954;BME280;67151;52.544;6.034;2023-08-12T00:51:41;101700;;;25.3;53
77954;BME280;67151;52.544;6.034;2023-08-12T00:51:55;101690;;;25.2;53
77954;BME280;67151;52.544;6.034;2023-08-12T00:52:10;101690;;;25.2;53.1
77954;BME280;67151;52.544;6.034;2023-08-12T00:52:25;101690;;;25.3;53
77954;BME280;67151;52.544;6.034;2023-08-12T00:52:40;101690;;;25.3;53
77954;BME280;67151;52.544;6.034;2023-08-12T00:52:55;101690;;;25.2;53
77954;BME280;67151;52.544;6.034;2023-08-12T00:53:10;101690;;;25.2;53
77954;BME280;67151;52.544;6.034;2023-08-12T00:53:25;101690;;;25.2;53
77954;BME280;67151;52.544;6.034;2023-08-12T00:53:40;101690;;;25.2;53
77954;BME280;67151;52.544;6.034;2023-08-12T00:53:55;101690;;;25.2;53
77954;BME280;67151;52.544;6.034;2023-08-12T00:54:13;101690;;;25.3;53
77954;BME280;67151;52.544;6.034;2023-08-12T00:54:25;101690;;;25.3;53
77954;BME280;67151;52.544;6.034;2023-08-12T00:54:40;101690;;;25.3;53
77954;BME280;67151;52.544;6.034;2023-08-12T00:54:55;101680;;;25.3;53
77954;BME280;67151;52.544;6.034;2023-08-12T00:55:10;101690;;;25.3;53
77954;BME280;67151;52.544;6.034;2023-08-12T00:55:25;101680;;;25.3;53
77954;BME280;67151;52.544;6.034;2023-08-12T00:55:40;101690;;;25.3;53
77954;BME280;67151;52.544;6.034;2023-08-12T00:55:55;101690;;;25.3;53
77954;BME280;67151;52.544;6.034;2023-08-12T00:56:10;101690;;;25.3;53
77954;BME280;67151;52.544;6.034;2023-08-12T00:56:26;101690;;;25.2;53
77954;BME280;67151;52.544;6.034;2023-08-12T00:56:40;101690;;;25.3;53
77954;BME280;67151;52.544;6.034;2023-08-12T00:56:55;101690;;;25.3;53
77954;BME280;67151;52.544;6.034;2023-08-12T00:57:10;101690;;;25.3;53
77954;BME280;67151;52.544;6.034;2023-08-12T00:57:25;101680;;;25.3;53
77954;BME280;67151;52.544;6.034;2023-08-12T00:57:40;101680;;;25.2;53
77954;BME280;67151;52.544;6.034;2023-08-12T00:57:55;101680;;;25.2;53
77954;BME280;67151;52.544;6.034;2023-08-12T00:58:10;101680;;;25.2;53
77954;BME280;67151;52.544;6.034;2023-08-12T00:58:25;101680;;;25.2;53.1
77954;BME280;67151;52.544;6.034;2023-08-12T00:58:40;101680;;;25.2;53
77954;BME280;67151;52.544;6.034;2023-08-12T00:58:56;101680;;;25.3;53
77954;BME280;67151;52.544;6.034;2023-08-12T00:59:10;101680;;;25.2;53
77954;BME280;67151;52.544;6.034;2023-08-12T00:59:25;101680;;;25.3;53
77954;BME280;67151;52.544;6.034;2023-08-12T00:59:41;101680;;;25.2;53
77954;BME280;67151;52.544;6.034;2023-08-12T00:59:55;101680;;;25.2;53.1
77954;BME280;67151;52.544;6.034;2023-08-12T01:00:11;101680;;;25.2;53.1
77954;BME280;67151;52.544;6.034;2023-08-12T01:00:25;101670;;;25.2;53.1
77954;BME280;67151;52.544;6.034;2023-08-12T01:00:40;101670;;;25.2;53
77954;BME280;67151;52.544;6.034;2023-08-12T01:00:55;101680;;;25.2;53
77954;BME280;67151;52.544;6.034;2023-08-12T01:01:10;101680;;;25.2;53
77954;BME280;67151;52.544;6.034;2023-08-12T01:01:25;101680;;;25.2;53
77954;BME280;67151;52.544;6.034;2023-08-12T01:01:40;101680;;;25.3;53
77954;BME280;67151;52.544;6.034;2023-08-12T01:01:55;101680;;;25.2;53
77954;BME280;67151;52.544;6.034;2023-08-12T01:02:10;101670;;;25.2;53
77954;BME280;67151;52.544;6.034;2023-08-12T01:02:25;101670;;;25.2;53
77954;BME280;67151;52.544;6.034;2023-08-12T01:02:40;101680;;;25.2;53
77954;BME280;67151;52.544;6.034;2023-08-12T01:02:55;101670;;;25.2;53
77954;BME280;67151;52.544;6.034;2023-08-12T01:03:10;101680;;;25.2;53
77954;BME280;67151;52.544;6.034;2023-08-12T01:03:25;101670;;;25.2;53
77954;BME280;67151;52.544;6.034;2023-08-12T01:03:41;101680;;;25.2;53
77954;BME280;67151;52.544;6.034;2023-08-12T01:03:56;101680;;;25.2;53
77954;BME280;67151;52.544;6.034;2023-08-12T01:04:10;101680;;;25.2;52.9
77954;BME280;67151;52.544;6.034;2023-08-12T01:04:25;101670;;;25.2;53
77954;BME280;67151;52.544;6.034;2023-08-12T01:04:40;101670;;;25.2;53
77954;BME280;67151;52.544;6.034;2023-08-12T01:04:55;101670;;;25.2;53
77954;BME280;67151;52.544;6.034;2023-08-12T01:05:10;101680;;;25.2;53
77954;BME280;67151;52.544;6.034;2023-08-12T01:05:25;101680;;;25.2;53
77954;BME280;67151;52.544;6.034;2023-08-12T01:05:40;101670;;;25.2;53
77954;BME280;67151;52.544;6.034;2023-08-12T01:05:55;101670;;;25.2;53
77954;BME280;67151;52.544;6.034;2023-08-12T01:06:11;101680;;;25.2;53
77954;BME280;67151;52.544;6.034;2023-08-12T01:06:26;101680;;;25.2;53
77954;BME280;67151;52.544;6.034;2023-08-12T01:06:40;101670;;;25.2;53
77954;BME280;67151;52.544;6.034;2023-08-12T01:06:55;101670;;;25.2;53
77954;BME280;67151;52.544;6.034;2023-08-12T01:07:10;101670;;;25.2;53
77954;BME280;67151;52.544;6.034;2023-08-12T01:07:25;101670;;;25.2;53
77954;BME280;67151;52.544;6.034;2023-08-12T01:07:40;101670;;;25.2;53.1
77954;BME280;67151;52.544;6.034;2023-08-12T01:07:55;101670;;;25.2;53
77954;BME280;67151;52.544;6.034;2023-08-12T01:08:10;101670;;;25.2;53
77954;BME280;67151;52.544;6.034;2023-08-12T01:08:28;101670;;;25.2;53
77954;BME280;67151;52.544;6.034;2023-08-12T01:08:40;101670;;;25.2;53
77954;BME280;67151;52.544;6.034;2023-08-12T01:08:55;101680;;;25.2;53
77954;BME280;67151;52.544;6.034;2023-08-12T01:09:10;101680;;;25.2;53
77954;BME280;67151;52.544;6.034;2023-08-12T01:09:25;101670;;;25.2;53
77954;BME280;67151;52.544;6.034;2023-08-12T01:09:40;101670;;;25.2;53
77954;BME280;67151;52.544;6.034;2023-08-12T01:09:55;101670;;;25.2;53
77954;BME280;67151;52.544;6.034;2023-08-12T01:10:10;101680;;;25.2;53
77954;BME280;67151;52.544;6.034;2023-08-12T01:10:27;101680;;;25.2;53
77954;BME280;67151;52.544;6.034;2023-08-12T01:10:43;101670;;;25.2;53
77954;BME280;67151;52.544;6.034;2023-08-12T01:10:56;101670;;;25.2;53
77954;BME280;67151;52.544;6.034;2023-08-12T01:11:12;101670;;;25.2;53
77954;BME280;67151;52.544;6.034;2023-08-12T01:11:26;101670;;;25.2;53
77954;BME280;67151;52.544;6.034;2023-08-12T01:11:41;101670;;;25.2;53
77954;BME280;67151;52.544;6.034;2023-08-12T01:11:57;101670;;;25.2;53
77954;BME280;67151;52.544;6.034;2023-08-12T01:12:12;101670;;;25.2;53
77954;BME280;67151;52.544;6.034;2023-08-12T01:12:26;101670;;;25.2;53.1
77954;BME280;67151;52.544;6.034;2023-08-12T01:12:41;101660;;;25.2;53
77954;BME280;67151;52.544;6.034;2023-08-12T01:12:57;101670;;;25.2;53
77954;BME280;67151;52.544;6.034;2023-08-12T01:13:16;101670;;;25.2;53.1
77954;BME280;67151;52.544;6.034;2023-08-12T01:13:26;101670;;;25.2;53.1
77954;BME280;67151;52.544;6.034;2023-08-12T01:13:42;101670;;;25.2;53.1
77954;BME280;67151;52.544;6.034;2023-08-12T01:13:57;101670;;;25.2;53.1
77954;BME280;67151;52.544;6.034;2023-08-12T01:14:12;101670;;;25.2;53
77954;BME280;67151;52.544;6.034;2023-08-12T01:14:27;101670;;;25.2;53
77954;BME280;67151;52.544;6.034;2023-08-12T01:14:46;101670;;;25.2;53
77954;BME280;67151;52.544;6.034;2023-08-12T01:14:56;101670;;;25.2;53
77954;BME280;67151;52.544;6.034;2023-08-12T01:15:12;101670;;;25.2;53
77954;BME280;67151;52.544;6.034;2023-08-12T01:15:25;101670;;;25.2;53
77954;BME280;67151;52.544;6.034;2023-08-12T01:15:40;101670;;;25.2;53
77954;BME280;67151;52.544;6.034;2023-08-12T01:15:56;101670;;;25.2;53.1
77954;BME280;67151;52.544;6.034;2023-08-12T01:16:10;101670;;;25.2;53.1
77954;BME280;67151;52.544;6.034;2023-08-12T01:16:26;101660;;;25.2;53
77954;BME280;67151;52.544;6.034;2023-08-12T01:16:42;101670;;;25.2;53
77954;BME280;67151;52.544;6.034;2023-08-12T01:16:56;101670;;;25.2;53
77954;BME280;67151;52.544;6.034;2023-08-12T01:17:11;101670;;;25.2;53.1
77954;BME280;67151;52.544;6.034;2023-08-12T01:17:25;101660;;;25.2;53.1
77954;BME280;67151;52.544;6.034;2023-08-12T01:17:41;101670;;;25.2;53.1
77954;BME280;67151;52.544;6.034;2023-08-12T01:17:55;101670;;;25.2;53.1
77954;BME280;67151;52.544;6.034;2023-08-12T01:18:10;101660;;;25.2;53.1
77954;BME280;67151;52.544;6.034;2023-08-12T01:18:25;101670;;;25.2;53
77954;BME280;67151;52.544;6.034;2023-08-12T01:18:40;101670;;;25.2;53
77954;BME280;67151;52.544;6.034;2023-08-12T01:18:55;101670;;;25.2;53
77954;BME280;67151;52.544;6.034;2023-08-12T01:19:11;101660;;;25.2;53
77954;BME280;67151;52.544;6.034;2023-08-12T01:19:28;101670;;;25.2;53
77954;BME280;67151;52.544;6.034;2023-08-12T01:19:40;101670;;;25.2;53
77954;BME280;67151;52.544;6.034;2023-08-12T01:19:55;101670;;;25.2;52.9
77954;BME280;67151;52.544;6.034;2023-08-12T01:20:11;101660;;;25.2;52.9
77954;BME280;67151;52.544;6.034;2023-08-12T01:20:25;101670;;;25.2;53
77954;BME280;67151;52.544;6.034;2023-08-12T01:20:40;101670;;;25.2;53
77954;BME280;67151;52.544;6.034;2023-08-12T01:20:55;101670;;;25.2;53
77954;BME280;67151;52.544;6.034;2023-08-12T01:21:11;101670;;;25.2;53
77954;BME280;67151;52.544;6.034;2023-08-12T01:21:25;101670;;;25.2;53
77954;BME280;67151;52.544;6.034;2023-08-12T01:21:41;101670;;;25.2;53
77954;BME280;67151;52.544;6.034;2023-08-12T01:21:55;101670;;;25.2;53
77954;BME280;67151;52.544;6.034;2023-08-12T01:22:11;101670;;;25.2;53
77954;BME280;67151;52.544;6.034;2023-08-12T01:22:25;101670;;;25.2;53
77954;BME280;67151;52.544;6.034;2023-08-12T01:22:41;101680;;;25.2;53
77954;BME280;67151;52.544;6.034;2023-08-12T01:22:56;101670;;;25.2;53
77954;BME280;67151;52.544;6.034;2023-08-12T01:23:11;101670;;;25.2;53
77954;BME280;67151;52.544;6.034;2023-08-12T01:23:25;101670;;;25.2;53
77954;BME280;67151;52.544;6.034;2023-08-12T01:23:40;101670;;;25.2;53
77954;BME280;67151;52.544;6.034;2023-08-12T01:23:55;101670;;;25.2;53
77954;BME280;67151;52.544;6.034;2023-08-12T01:24:10;101670;;;25.2;53
77954;BME280;67151;52.544;6.034;2023-08-12T01:24:25;101670;;;25.2;53
77954;BME280;67151;52.544;6.034;2023-08-12T01:24:41;101660;;;25.2;53
77954;BME280;67151;52.544;6.034;2023-08-12T01:24:55;101670;;;25.2;52.9
77954;BME280;67151;52.544;6.034;2023-08-12T01:25:10;101670;;;25.2;53
77954;BME280;67151;52.544;6.034;2023-08-12T01:25:25;101660;;;25.2;53
77954;BME280;67151;52.544;6.034;2023-08-12T01:25:41;101670;;;25.2;53
77954;BME280;67151;52.544;6.034;2023-08-12T01:25:55;101670;;;25.2;53